sensor_id;sensor_type;location;lat;lon;timestamp;pressure;altitude;pressure_sealevel;temperature;humidity
63607;BME280;51327;52.466;-1.938;2022-08-14T00:01:20;99410.16;;;20.27;46.40
63607;BME280;51327;52.466;-1.938;2022-08-14T00:03:47;99406.59;;;20.18;46.53
63607;BME280;51327;52.466;-1.938;2022-08-14T00:06:15;99407.13;;;20.14;46.48
63607;BME280;51327;52.466;-1.938;2022-08-14T00:08:42;99409.34;;;20.10;46.95
63607;BME280;51327;52.466;-1.938;2022-08-14T00:11:08;99399.84;;;20.06;46.79
63607;BME280;51327;52.466;-1.938;2022-08-14T00:13:33;99402.72;;;20.05;47.41
63607;BME280;51327;52.466;-1.938;2022-08-14T00:16:01;99399.19;;;20.04;47.27
63607;BME280;51327;52.466;-1.938;2022-08-14T00:18:29;99391.56;;;19.99;47.31
63607;BME280;51327;52.466;-1.938;2022-08-14T00:20:55;99391.22;;;19.94;47.96
63607;BME280;51327;52.466;-1.938;2022-08-14T00:23:20;99391.91;;;19.88;47.57
63607;BME280;51327;52.466;-1.938;2022-08-14T00:25:49;99385.78;;;19.86;48.24
63607;BME280;51327;52.466;-1.938;2022-08-14T00:28:17;99386.63;;;19.87;48.16
63607;BME280;51327;52.466;-1.938;2022-08-14T00:30:45;99389.00;;;19.81;48.12
63607;BME280;51327;52.466;-1.938;2022-08-14T00:33:13;99384.44;;;19.74;48.33
63607;BME280;51327;52.466;-1.938;2022-08-14T00:35:40;99378.66;;;19.69;48.54
63607;BME280;51327;52.466;-1.938;2022-08-14T00:38:08;99374.41;;;19.66;49.02
63607;BME280;51327;52.466;-1.938;2022-08-14T00:40:35;99381.00;;;19.64;49.05
63607;BME280;51327;52.466;-1.938;2022-08-14T00:43:03;99384.06;;;19.60;48.91
63607;BME280;51327;52.466;-1.938;2022-08-14T00:45:30;99381.66;;;19.57;49.01
63607;BME280;51327;52.466;-1.938;2022-08-14T00:47:56;99383.03;;;19.53;49.18
63607;BME280;51327;52.466;-1.938;2022-08-14T00:50:22;99383.19;;;19.52;49.37
63607;BME280;51327;52.466;-1.938;2022-08-14T00:52:50;99374.53;;;19.48;49.56
63607;BME280;51327;52.466;-1.938;2022-08-14T00:55:20;99383.19;;;19.44;49.53
63607;BME280;51327;52.466;-1.938;2022-08-14T00:57:46;99378.09;;;19.40;49.39
63607;BME280;51327;52.466;-1.938;2022-08-14T01:00:34;99367.94;;;19.34;49.84
63607;BME280;51327;52.466;-1.938;2022-08-14T01:03:03;99370.28;;;19.29;49.73
63607;BME280;51327;52.466;-1.938;2022-08-14T01:05:31;99376.34;;;19.23;50.34
63607;BME280;51327;52.466;-1.938;2022-08-14T01:08:00;99368.94;;;19.17;50.27
63607;BME280;51327;52.466;-1.938;2022-08-14T01:10:28;99376.84;;;19.10;50.87
63607;BME280;51327;52.466;-1.938;2022-08-14T01:13:16;99363.81;;;19.06;50.90
63607;BME280;51327;52.466;-1.938;2022-08-14T01:15:45;99362.78;;;18.98;50.88
63607;BME280;51327;52.466;-1.938;2022-08-14T01:18:12;99369.69;;;18.93;51.21
63607;BME280;51327;52.466;-1.938;2022-08-14T01:20:57;99361.72;;;18.91;51.11
63607;BME280;51327;52.466;-1.938;2022-08-14T01:23:33;99360.53;;;18.86;51.08
63607;BME280;51327;52.466;-1.938;2022-08-14T01:26:02;99359.16;;;18.82;51.75
63607;BME280;51327;52.466;-1.938;2022-08-14T01:28:30;99356.38;;;18.73;51.80
63607;BME280;51327;52.466;-1.938;2022-08-14T01:30:59;99363.84;;;18.71;52.05
63607;BME280;51327;52.466;-1.938;2022-08-14T01:33:24;99362.28;;;18.69;52.00
63607;BME280;51327;52.466;-1.938;2022-08-14T01:35:55;99363.44;;;18.66;52.35
63607;BME280;51327;52.466;-1.938;2022-08-14T01:38:29;99361.06;;;18.63;52.35
63607;BME280;51327;52.466;-1.938;2022-08-14T01:41:01;99353.44;;;18.58;52.14
63607;BME280;51327;52.466;-1.938;2022-08-14T01:43:28;99353.78;;;18.55;52.78
63607;BME280;51327;52.466;-1.938;2022-08-14T01:46:04;99353.09;;;18.53;52.83
63607;BME280;51327;52.466;-1.938;2022-08-14T01:48:30;99350.00;;;18.48;52.71
63607;BME280;51327;52.466;-1.938;2022-08-14T01:50:58;99352.19;;;18.45;53.27
63607;BME280;51327;52.466;-1.938;2022-08-14T01:53:27;99353.53;;;18.41;53.31
63607;BME280;51327;52.466;-1.938;2022-08-14T01:55:55;99354.16;;;18.34;53.68
63607;BME280;51327;52.466;-1.938;2022-08-14T01:58:22;99347.56;;;18.29;53.66
63607;BME280;51327;52.466;-1.938;2022-08-14T02:00:49;99349.72;;;18.25;54.20
63607;BME280;51327;52.466;-1.938;2022-08-14T02:03:20;99345.81;;;18.20;53.83
63607;BME280;51327;52.466;-1.938;2022-08-14T02:05:49;99343.41;;;18.16;53.90
63607;BME280;51327;52.466;-1.938;2022-08-14T02:08:17;99342.19;;;18.11;54.25
63607;BME280;51327;52.466;-1.938;2022-08-14T02:10:42;99345.75;;;18.11;54.41
63607;BME280;51327;52.466;-1.938;2022-08-14T02:13:08;99351.16;;;18.11;54.67
63607;BME280;51327;52.466;-1.938;2022-08-14T02:15:37;99352.31;;;18.09;54.80
63607;BME280;51327;52.466;-1.938;2022-08-14T02:18:05;99350.63;;;18.08;54.73
63607;BME280;51327;52.466;-1.938;2022-08-14T02:20:31;99340.44;;;18.02;54.64
63607;BME280;51327;52.466;-1.938;2022-08-14T02:23:00;99343.63;;;17.97;54.90
63607;BME280;51327;52.466;-1.938;2022-08-14T02:25:25;99343.41;;;17.90;54.91
63607;BME280;51327;52.466;-1.938;2022-08-14T02:27:51;99343.03;;;17.85;55.54
63607;BME280;51327;52.466;-1.938;2022-08-14T02:30:22;99339.25;;;17.78;55.80
63607;BME280;51327;52.466;-1.938;2022-08-14T02:32:50;99343.09;;;17.75;56.01
63607;BME280;51327;52.466;-1.938;2022-08-14T02:35:15;99336.47;;;17.70;56.09
63607;BME280;51327;52.466;-1.938;2022-08-14T02:37:45;99335.91;;;17.66;56.42
63607;BME280;51327;52.466;-1.938;2022-08-14T02:40:13;99333.69;;;17.62;56.94
63607;BME280;51327;52.466;-1.938;2022-08-14T02:42:42;99329.59;;;17.58;56.74
63607;BME280;51327;52.466;-1.938;2022-08-14T02:45:07;99325.13;;;17.48;56.76
63607;BME280;51327;52.466;-1.938;2022-08-14T02:47:34;99335.41;;;17.45;57.11
63607;BME280;51327;52.466;-1.938;2022-08-14T02:50:02;99326.75;;;17.41;57.50
63607;BME280;51327;52.466;-1.938;2022-08-14T02:52:30;99327.91;;;17.39;57.54
63607;BME280;51327;52.466;-1.938;2022-08-14T02:54:59;99329.41;;;17.33;57.62
63607;BME280;51327;52.466;-1.938;2022-08-14T02:57:27;99326.28;;;17.28;57.27
63607;BME280;51327;52.466;-1.938;2022-08-14T02:59:52;99322.38;;;17.22;57.76
63607;BME280;51327;52.466;-1.938;2022-08-14T03:02:18;99320.13;;;17.18;58.45
63607;BME280;51327;52.466;-1.938;2022-08-14T03:04:45;99314.88;;;17.16;58.65
63607;BME280;51327;52.466;-1.938;2022-08-14T03:07:13;99311.66;;;17.13;58.65
63607;BME280;51327;52.466;-1.938;2022-08-14T03:09:43;99312.97;;;17.08;59.03
63607;BME280;51327;52.466;-1.938;2022-08-14T03:12:10;99313.94;;;17.07;59.26
63607;BME280;51327;52.466;-1.938;2022-08-14T03:14:36;99308.88;;;17.04;59.15
63607;BME280;51327;52.466;-1.938;2022-08-14T03:17:06;99313.72;;;17.01;59.70
63607;BME280;51327;52.466;-1.938;2022-08-14T03:19:36;99308.25;;;16.93;59.48
63607;BME280;51327;52.466;-1.938;2022-08-14T03:22:03;99304.84;;;16.90;59.73
63607;BME280;51327;52.466;-1.938;2022-08-14T03:24:31;99295.22;;;16.88;59.68
63607;BME280;51327;52.466;-1.938;2022-08-14T03:26:57;99309.69;;;16.87;60.32
63607;BME280;51327;52.466;-1.938;2022-08-14T03:29:22;99301.91;;;16.84;60.06
63607;BME280;51327;52.466;-1.938;2022-08-14T03:31:50;99301.91;;;16.84;60.84
63607;BME280;51327;52.466;-1.938;2022-08-14T03:34:18;99301.91;;;16.84;60.72
63607;BME280;51327;52.466;-1.938;2022-08-14T03:36:48;99298.50;;;16.82;60.68
63607;BME280;51327;52.466;-1.938;2022-08-14T03:39:21;99297.81;;;16.80;60.87
63607;BME280;51327;52.466;-1.938;2022-08-14T03:41:49;99294.38;;;16.78;61.25
63607;BME280;51327;52.466;-1.938;2022-08-14T03:44:17;99290.00;;;16.77;61.54
63607;BME280;51327;52.466;-1.938;2022-08-14T03:46:45;99292.69;;;16.77;61.84
63607;BME280;51327;52.466;-1.938;2022-08-14T03:49:13;99282.91;;;16.76;61.80
63607;BME280;51327;52.466;-1.938;2022-08-14T03:51:40;99282.38;;;16.72;61.27
63607;BME280;51327;52.466;-1.938;2022-08-14T03:54:06;99281.97;;;16.67;61.66
63607;BME280;51327;52.466;-1.938;2022-08-14T03:56:33;99286.81;;;16.63;62.21
63607;BME280;51327;52.466;-1.938;2022-08-14T03:59:04;99285.97;;;16.63;62.40
63607;BME280;51327;52.466;-1.938;2022-08-14T04:01:36;99281.88;;;16.59;62.25
63607;BME280;51327;52.466;-1.938;2022-08-14T04:04:03;99281.50;;;16.54;62.45
63607;BME280;51327;52.466;-1.938;2022-08-14T04:06:34;99280.78;;;16.52;62.82
63607;BME280;51327;52.466;-1.938;2022-08-14T04:09:04;99285.63;;;16.48;62.39
63607;BME280;51327;52.466;-1.938;2022-08-14T04:11:33;99279.69;;;16.44;62.57
63607;BME280;51327;52.466;-1.938;2022-08-14T04:14:02;99280.84;;;16.42;63.00
63607;BME280;51327;52.466;-1.938;2022-08-14T04:16:30;99278.75;;;16.36;62.87
63607;BME280;51327;52.466;-1.938;2022-08-14T04:18:58;99275.34;;;16.34;63.50
63607;BME280;51327;52.466;-1.938;2022-08-14T04:21:26;99277.19;;;16.33;63.54
63607;BME280;51327;52.466;-1.938;2022-08-14T04:23:55;99267.41;;;16.32;63.63
63607;BME280;51327;52.466;-1.938;2022-08-14T04:26:22;99265.00;;;16.29;64.00
63607;BME280;51327;52.466;-1.938;2022-08-14T04:28:50;99260.59;;;16.28;64.30
63607;BME280;51327;52.466;-1.938;2022-08-14T04:31:18;99266.31;;;16.25;64.22
63607;BME280;51327;52.466;-1.938;2022-08-14T04:33:46;99266.44;;;16.23;64.69
63607;BME280;51327;52.466;-1.938;2022-08-14T04:36:12;99266.63;;;16.22;64.86
63607;BME280;51327;52.466;-1.938;2022-08-14T04:38:38;99268.44;;;16.21;64.85
63607;BME280;51327;52.466;-1.938;2022-08-14T04:41:44;99278.81;;;16.16;64.69
63607;BME280;51327;52.466;-1.938;2022-08-14T04:44:47;99272.59;;;16.16;65.32
63607;BME280;51327;52.466;-1.938;2022-08-14T04:47:14;99278.81;;;16.16;65.10
63607;BME280;51327;52.466;-1.938;2022-08-14T04:50:01;99277.25;;;16.14;65.20
63607;BME280;51327;52.466;-1.938;2022-08-14T04:52:28;99265.66;;;16.13;65.29
63607;BME280;51327;52.466;-1.938;2022-08-14T04:54:53;99259.41;;;16.13;65.45
63607;BME280;51327;52.466;-1.938;2022-08-14T04:57:21;99260.25;;;16.13;65.41
63607;BME280;51327;52.466;-1.938;2022-08-14T04:59:48;99267.78;;;16.10;65.74
63607;BME280;51327;52.466;-1.938;2022-08-14T05:02:15;99266.81;;;16.11;65.50
63607;BME280;51327;52.466;-1.938;2022-08-14T05:04:43;99260.56;;;16.10;66.02
63607;BME280;51327;52.466;-1.938;2022-08-14T05:07:10;99256.88;;;16.11;65.82
63607;BME280;51327;52.466;-1.938;2022-08-14T05:09:38;99256.72;;;16.13;65.73
63607;BME280;51327;52.466;-1.938;2022-08-14T05:12:05;99258.97;;;16.17;65.87
63607;BME280;51327;52.466;-1.938;2022-08-14T05:14:31;99260.22;;;16.23;65.80
63607;BME280;51327;52.466;-1.938;2022-08-14T05:16:56;99254.53;;;16.26;65.74
63607;BME280;51327;52.466;-1.938;2022-08-14T05:19:24;99259.31;;;16.32;66.01
63607;BME280;51327;52.466;-1.938;2022-08-14T05:21:53;99253.66;;;16.35;65.49
63607;BME280;51327;52.466;-1.938;2022-08-14T05:24:22;99250.66;;;16.38;65.89
63607;BME280;51327;52.466;-1.938;2022-08-14T05:26:51;99259.28;;;16.42;65.83
63607;BME280;51327;52.466;-1.938;2022-08-14T05:29:19;99251.59;;;16.47;65.88
63607;BME280;51327;52.466;-1.938;2022-08-14T05:31:44;99250.13;;;16.53;66.08
63607;BME280;51327;52.466;-1.938;2022-08-14T05:34:09;99251.53;;;16.57;66.00
63607;BME280;51327;52.466;-1.938;2022-08-14T05:36:37;99249.22;;;16.62;66.07
63607;BME280;51327;52.466;-1.938;2022-08-14T05:39:05;99250.31;;;16.69;65.99
63607;BME280;51327;52.466;-1.938;2022-08-14T05:41:31;99248.53;;;16.78;65.65
63607;BME280;51327;52.466;-1.938;2022-08-14T05:43:58;99248.53;;;16.87;65.45
63607;BME280;51327;52.466;-1.938;2022-08-14T05:46:26;99249.28;;;16.98;65.61
63607;BME280;51327;52.466;-1.938;2022-08-14T05:48:55;99242.81;;;17.08;65.31
63607;BME280;51327;52.466;-1.938;2022-08-14T05:51:23;99241.56;;;17.21;64.89
63607;BME280;51327;52.466;-1.938;2022-08-14T05:53:51;99235.94;;;17.32;65.02
63607;BME280;51327;52.466;-1.938;2022-08-14T05:56:16;99234.69;;;17.44;65.04
63607;BME280;51327;52.466;-1.938;2022-08-14T05:58:42;99231.56;;;17.57;64.74
63607;BME280;51327;52.466;-1.938;2022-08-14T06:01:09;99235.84;;;17.68;64.09
63607;BME280;51327;52.466;-1.938;2022-08-14T06:03:37;99231.03;;;17.80;63.44
63607;BME280;51327;52.466;-1.938;2022-08-14T06:06:05;99233.50;;;17.91;63.06
63607;BME280;51327;52.466;-1.938;2022-08-14T06:08:32;99238.78;;;18.01;62.49
63607;BME280;51327;52.466;-1.938;2022-08-14T06:10:59;99233.44;;;18.09;61.65
63607;BME280;51327;52.466;-1.938;2022-08-14T06:13:27;99229.75;;;18.18;61.94
63607;BME280;51327;52.466;-1.938;2022-08-14T06:15:55;99235.19;;;18.26;60.87
63607;BME280;51327;52.466;-1.938;2022-08-14T06:18:20;99220.03;;;18.33;61.04
63607;BME280;51327;52.466;-1.938;2022-08-14T06:20:46;99219.19;;;18.41;60.31
63607;BME280;51327;52.466;-1.938;2022-08-14T06:23:13;99217.50;;;18.48;60.04
63607;BME280;51327;52.466;-1.938;2022-08-14T06:25:41;99210.63;;;18.54;59.70
63607;BME280;51327;52.466;-1.938;2022-08-14T06:28:21;99210.81;;;18.61;59.34
63607;BME280;51327;52.466;-1.938;2022-08-14T06:30:49;99209.97;;;18.68;58.87
63607;BME280;51327;52.466;-1.938;2022-08-14T06:33:17;99214.88;;;18.73;59.21
63607;BME280;51327;52.466;-1.938;2022-08-14T06:35:45;99203.59;;;18.77;59.24
63607;BME280;51327;52.466;-1.938;2022-08-14T06:38:17;99209.19;;;18.84;58.83
63607;BME280;51327;52.466;-1.938;2022-08-14T06:40:45;99206.66;;;18.91;58.59
63607;BME280;51327;52.466;-1.938;2022-08-14T06:43:13;99207.69;;;18.98;57.59
63607;BME280;51327;52.466;-1.938;2022-08-14T06:45:42;99201.75;;;19.03;57.27
63607;BME280;51327;52.466;-1.938;2022-08-14T06:48:14;99195.84;;;19.07;56.95
63607;BME280;51327;52.466;-1.938;2022-08-14T06:50:43;99206.16;;;19.12;56.60
63607;BME280;51327;52.466;-1.938;2022-08-14T06:53:11;99211.75;;;19.18;56.10
63607;BME280;51327;52.466;-1.938;2022-08-14T06:55:41;99197.88;;;19.22;55.74
63607;BME280;51327;52.466;-1.938;2022-08-14T06:58:12;99198.53;;;19.32;55.68
63607;BME280;51327;52.466;-1.938;2022-08-14T07:00:40;99202.09;;;19.40;55.58
63607;BME280;51327;52.466;-1.938;2022-08-14T07:03:28;99204.63;;;19.50;54.94
63607;BME280;51327;52.466;-1.938;2022-08-14T07:06:15;99193.28;;;19.55;54.86
63607;BME280;51327;52.466;-1.938;2022-08-14T07:08:41;99194.94;;;19.64;54.60
63607;BME280;51327;52.466;-1.938;2022-08-14T07:11:07;99195.31;;;19.69;54.43
63607;BME280;51327;52.466;-1.938;2022-08-14T07:13:35;99197.69;;;19.72;54.56
63607;BME280;51327;52.466;-1.938;2022-08-14T07:16:01;99194.75;;;19.82;54.31
63607;BME280;51327;52.466;-1.938;2022-08-14T07:18:28;99190.16;;;19.91;54.33
63607;BME280;51327;52.466;-1.938;2022-08-14T07:20:56;99196.25;;;20.01;53.76
63607;BME280;51327;52.466;-1.938;2022-08-14T07:23:24;99185.56;;;20.08;53.29
63607;BME280;51327;52.466;-1.938;2022-08-14T07:25:53;99192.25;;;20.20;53.86
63607;BME280;51327;52.466;-1.938;2022-08-14T07:28:20;99189.16;;;20.31;53.45
63607;BME280;51327;52.466;-1.938;2022-08-14T07:30:48;99194.03;;;20.44;52.47
63607;BME280;51327;52.466;-1.938;2022-08-14T07:33:15;99177.88;;;20.51;52.33
63607;BME280;51327;52.466;-1.938;2022-08-14T07:35:41;99183.56;;;20.64;52.44
63607;BME280;51327;52.466;-1.938;2022-08-14T07:38:06;99191.31;;;20.75;51.97
63607;BME280;51327;52.466;-1.938;2022-08-14T07:40:34;99189.75;;;20.81;52.26
63607;BME280;51327;52.466;-1.938;2022-08-14T07:43:02;99194.28;;;20.89;51.83
63607;BME280;51327;52.466;-1.938;2022-08-14T07:45:29;99191.34;;;20.98;51.88
63607;BME280;51327;52.466;-1.938;2022-08-14T07:47:56;99188.84;;;21.12;51.28
63607;BME280;51327;52.466;-1.938;2022-08-14T07:50:22;99194.03;;;21.21;50.43
63607;BME280;51327;52.466;-1.938;2022-08-14T07:52:48;99189.06;;;21.25;49.96
63607;BME280;51327;52.466;-1.938;2022-08-14T07:55:16;99187.69;;;21.29;49.81
63607;BME280;51327;52.466;-1.938;2022-08-14T07:57:45;99181.97;;;21.39;49.83
63607;BME280;51327;52.466;-1.938;2022-08-14T08:00:15;99178.66;;;21.52;49.54
63607;BME280;51327;52.466;-1.938;2022-08-14T08:02:44;99178.78;;;21.58;49.22
63607;BME280;51327;52.466;-1.938;2022-08-14T08:05:12;99177.38;;;21.62;48.71
63607;BME280;51327;52.466;-1.938;2022-08-14T08:07:41;99184.59;;;21.70;49.01
63607;BME280;51327;52.466;-1.938;2022-08-14T08:10:16;99178.03;;;21.79;48.46
63607;BME280;51327;52.466;-1.938;2022-08-14T08:13:09;99171.47;;;21.88;48.37
63607;BME280;51327;52.466;-1.938;2022-08-14T08:15:38;99169.50;;;21.97;48.28
63607;BME280;51327;52.466;-1.938;2022-08-14T08:18:07;99167.25;;;22.01;48.10
63607;BME280;51327;52.466;-1.938;2022-08-14T08:20:35;99169.03;;;22.08;47.13
63607;BME280;51327;52.466;-1.938;2022-08-14T08:23:04;99165.91;;;22.11;46.85
63607;BME280;51327;52.466;-1.938;2022-08-14T08:25:31;99167.16;;;22.24;46.96
63607;BME280;51327;52.466;-1.938;2022-08-14T08:28:04;99169.59;;;22.34;46.52
63607;BME280;51327;52.466;-1.938;2022-08-14T08:30:38;99150.44;;;22.42;46.31
63607;BME280;51327;52.466;-1.938;2022-08-14T08:33:07;99147.59;;;22.50;46.65
63607;BME280;51327;52.466;-1.938;2022-08-14T08:35:36;99144.75;;;22.58;46.55
63607;BME280;51327;52.466;-1.938;2022-08-14T08:38:07;99141.44;;;22.63;45.97
63607;BME280;51327;52.466;-1.938;2022-08-14T08:40:40;99136.06;;;22.69;46.10
63607;BME280;51327;52.466;-1.938;2022-08-14T08:43:16;99146.19;;;22.76;46.05
63607;BME280;51327;52.466;-1.938;2022-08-14T08:45:48;99142.31;;;22.85;45.24
63607;BME280;51327;52.466;-1.938;2022-08-14T08:48:18;99140.44;;;22.85;45.62
63607;BME280;51327;52.466;-1.938;2022-08-14T08:50:46;99144.28;;;22.98;45.56
63607;BME280;51327;52.466;-1.938;2022-08-14T08:53:13;99138.50;;;23.01;44.83
63607;BME280;51327;52.466;-1.938;2022-08-14T08:55:42;99137.47;;;23.02;45.31
63607;BME280;51327;52.466;-1.938;2022-08-14T08:58:11;99133.75;;;23.09;45.22
63607;BME280;51327;52.466;-1.938;2022-08-14T09:00:40;99135.94;;;23.21;44.62
63607;BME280;51327;52.466;-1.938;2022-08-14T09:03:09;99135.16;;;23.27;44.63
63607;BME280;51327;52.466;-1.938;2022-08-14T09:05:47;99130.84;;;23.39;44.36
63607;BME280;51327;52.466;-1.938;2022-08-14T09:08:17;99135.31;;;23.47;44.58
63607;BME280;51327;52.466;-1.938;2022-08-14T09:10:45;99137.88;;;23.55;44.42
63607;BME280;51327;52.466;-1.938;2022-08-14T09:13:14;99132.50;;;23.68;44.28
63607;BME280;51327;52.466;-1.938;2022-08-14T09:15:41;99121.66;;;23.75;44.23
63607;BME280;51327;52.466;-1.938;2022-08-14T09:18:07;99121.09;;;23.86;43.72
63607;BME280;51327;52.466;-1.938;2022-08-14T09:20:36;99119.69;;;23.97;43.50
63607;BME280;51327;52.466;-1.938;2022-08-14T09:23:04;99118.25;;;24.01;43.07
63607;BME280;51327;52.466;-1.938;2022-08-14T09:25:30;99105.69;;;24.13;43.24
63607;BME280;51327;52.466;-1.938;2022-08-14T09:27:56;99119.81;;;24.30;42.67
63607;BME280;51327;52.466;-1.938;2022-08-14T09:30:23;99112.50;;;24.37;42.57
63607;BME280;51327;52.466;-1.938;2022-08-14T09:33:02;99111.69;;;24.44;42.03
63607;BME280;51327;52.466;-1.938;2022-08-14T09:43:32;99104.00;;;24.87;41.31
63607;BME280;51327;52.466;-1.938;2022-08-14T09:46:05;99101.91;;;24.96;40.80
63607;BME280;51327;52.466;-1.938;2022-08-14T09:48:33;99097.28;;;25.10;40.81
63607;BME280;51327;52.466;-1.938;2022-08-14T09:51:01;99092.69;;;25.24;40.29
63607;BME280;51327;52.466;-1.938;2022-08-14T09:53:35;99089.50;;;25.33;40.42
63607;BME280;51327;52.466;-1.938;2022-08-14T09:56:04;99091.41;;;25.46;40.38
63607;BME280;51327;52.466;-1.938;2022-08-14T09:58:42;99080.19;;;25.61;39.89
63607;BME280;51327;52.466;-1.938;2022-08-14T10:01:10;99077.84;;;25.78;39.59
63607;BME280;51327;52.466;-1.938;2022-08-14T10:03:37;99078.22;;;25.95;39.13
63607;BME280;51327;52.466;-1.938;2022-08-14T10:06:04;99074.81;;;26.06;39.62
63607;BME280;51327;52.466;-1.938;2022-08-14T10:08:45;99068.03;;;26.15;38.93
63607;BME280;51327;52.466;-1.938;2022-08-14T10:11:17;99067.53;;;26.25;38.77
63607;BME280;51327;52.466;-1.938;2022-08-14T10:13:46;99068.31;;;26.39;38.25
63607;BME280;51327;52.466;-1.938;2022-08-14T10:16:17;99063.00;;;26.51;38.07
63607;BME280;51327;52.466;-1.938;2022-08-14T10:18:47;99064.81;;;26.63;37.71
63607;BME280;51327;52.466;-1.938;2022-08-14T10:21:24;99062.44;;;26.74;36.89
63607;BME280;51327;52.466;-1.938;2022-08-14T10:24:04;99055.03;;;26.74;36.82
63607;BME280;51327;52.466;-1.938;2022-08-14T10:26:35;99052.88;;;26.83;36.94
63607;BME280;51327;52.466;-1.938;2022-08-14T10:29:07;99048.78;;;26.92;36.95
63607;BME280;51327;52.466;-1.938;2022-08-14T10:31:37;99055.50;;;26.96;36.42
63607;BME280;51327;52.466;-1.938;2022-08-14T10:34:09;99043.88;;;27.01;36.58
63607;BME280;51327;52.466;-1.938;2022-08-14T10:36:38;99048.63;;;27.12;36.25
63607;BME280;51327;52.466;-1.938;2022-08-14T10:39:07;99048.34;;;27.20;35.97
63607;BME280;51327;52.466;-1.938;2022-08-14T10:41:36;99043.81;;;27.33;35.60
63607;BME280;51327;52.466;-1.938;2022-08-14T10:44:09;99041.06;;;27.33;35.31
63607;BME280;51327;52.466;-1.938;2022-08-14T10:47:01;99042.81;;;27.45;35.45
63607;BME280;51327;52.466;-1.938;2022-08-14T10:49:42;99030.94;;;27.52;35.17
63607;BME280;51327;52.466;-1.938;2022-08-14T10:52:19;99028.72;;;27.60;34.90
63607;BME280;51327;52.466;-1.938;2022-08-14T10:54:45;99030.50;;;27.73;35.02
63607;BME280;51327;52.466;-1.938;2022-08-14T10:57:24;99012.44;;;27.84;34.79
63607;BME280;51327;52.466;-1.938;2022-08-14T10:59:53;99014.47;;;27.88;34.53
63607;BME280;51327;52.466;-1.938;2022-08-14T11:07:29;99010.66;;;28.20;32.84
63607;BME280;51327;52.466;-1.938;2022-08-14T11:09:58;98992.44;;;28.25;33.25
63607;BME280;51327;52.466;-1.938;2022-08-14T11:12:37;98997.13;;;28.37;31.80
63607;BME280;51327;52.466;-1.938;2022-08-14T11:15:05;98999.28;;;28.46;32.70
63607;BME280;51327;52.466;-1.938;2022-08-14T11:17:33;98994.78;;;28.52;32.15
63607;BME280;51327;52.466;-1.938;2022-08-14T11:20:19;98997.53;;;28.52;31.67
63607;BME280;51327;52.466;-1.938;2022-08-14T11:23:00;98991.72;;;28.60;31.84
63607;BME280;51327;52.466;-1.938;2022-08-14T11:25:44;98979.53;;;28.68;31.45
63607;BME280;51327;52.466;-1.938;2022-08-14T11:28:31;98986.47;;;28.82;31.34
63607;BME280;51327;52.466;-1.938;2022-08-14T11:31:12;98985.41;;;28.95;30.77
63607;BME280;51327;52.466;-1.938;2022-08-14T11:33:56;98989.22;;;29.06;30.11
63607;BME280;51327;52.466;-1.938;2022-08-14T11:36:37;98976.81;;;29.03;29.87
63607;BME280;51327;52.466;-1.938;2022-08-14T11:39:04;98976.31;;;29.06;30.13
63607;BME280;51327;52.466;-1.938;2022-08-14T11:41:30;98974.28;;;29.02;29.98
63607;BME280;51327;52.466;-1.938;2022-08-14T11:43:58;98970.09;;;28.99;30.42
63607;BME280;51327;52.466;-1.938;2022-08-14T11:46:25;98966.78;;;29.09;30.83
63607;BME280;51327;52.466;-1.938;2022-08-14T11:48:54;98964.88;;;29.21;29.81
63607;BME280;51327;52.466;-1.938;2022-08-14T11:51:23;98959.47;;;29.26;30.04
63607;BME280;51327;52.466;-1.938;2022-08-14T11:53:52;98959.84;;;29.30;29.68
63607;BME280;51327;52.466;-1.938;2022-08-14T11:56:18;98958.59;;;29.38;29.87
63607;BME280;51327;52.466;-1.938;2022-08-14T11:58:50;98956.56;;;29.45;29.13
63607;BME280;51327;52.466;-1.938;2022-08-14T12:01:26;98957.25;;;29.52;29.13
63607;BME280;51327;52.466;-1.938;2022-08-14T12:03:55;98948.16;;;29.51;28.52
63607;BME280;51327;52.466;-1.938;2022-08-14T12:06:24;98946.59;;;29.55;27.35
63607;BME280;51327;52.466;-1.938;2022-08-14T12:08:49;98935.34;;;29.69;28.03
63607;BME280;51327;52.466;-1.938;2022-08-14T12:11:19;98932.19;;;29.77;27.85
63607;BME280;51327;52.466;-1.938;2022-08-14T12:13:47;98942.22;;;29.83;27.66
63607;BME280;51327;52.466;-1.938;2022-08-14T12:16:15;98936.22;;;29.86;27.41
63607;BME280;51327;52.466;-1.938;2022-08-14T12:18:44;98933.06;;;29.94;27.89
63607;BME280;51327;52.466;-1.938;2022-08-14T12:21:13;98938.59;;;29.94;27.57
63607;BME280;51327;52.466;-1.938;2022-08-14T12:23:41;98937.16;;;29.92;27.54
63607;BME280;51327;52.466;-1.938;2022-08-14T12:26:12;98926.06;;;29.87;27.27
63607;BME280;51327;52.466;-1.938;2022-08-14T12:28:40;98929.13;;;29.90;26.89
63607;BME280;51327;52.466;-1.938;2022-08-14T12:31:12;98928.06;;;29.91;26.64
63607;BME280;51327;52.466;-1.938;2022-08-14T12:33:41;98923.25;;;29.98;26.59
63607;BME280;51327;52.466;-1.938;2022-08-14T12:36:10;98922.75;;;30.02;26.63
63607;BME280;51327;52.466;-1.938;2022-08-14T12:38:47;98929.44;;;30.06;26.73
63607;BME280;51327;52.466;-1.938;2022-08-14T12:41:18;98917.81;;;30.04;26.60
63607;BME280;51327;52.466;-1.938;2022-08-14T12:48:49;98911.34;;;30.10;26.29
63607;BME280;51327;52.466;-1.938;2022-08-14T12:51:21;98912.25;;;30.15;26.03
63607;BME280;51327;52.466;-1.938;2022-08-14T12:53:52;98893.91;;;30.21;26.59
63607;BME280;51327;52.466;-1.938;2022-08-14T12:56:20;98896.53;;;30.28;25.82
63607;BME280;51327;52.466;-1.938;2022-08-14T12:58:50;98893.63;;;30.34;26.28
63607;BME280;51327;52.466;-1.938;2022-08-14T13:01:17;98890.75;;;30.46;25.70
63607;BME280;51327;52.466;-1.938;2022-08-14T13:03:45;98883.31;;;30.47;25.82
63607;BME280;51327;52.466;-1.938;2022-08-14T13:06:12;98883.66;;;30.50;25.89
63607;BME280;51327;52.466;-1.938;2022-08-14T13:08:38;98877.56;;;30.48;25.45
63607;BME280;51327;52.466;-1.938;2022-08-14T13:11:13;98887.41;;;30.44;25.59
63607;BME280;51327;52.466;-1.938;2022-08-14T13:13:42;98875.06;;;30.47;25.36
63607;BME280;51327;52.466;-1.938;2022-08-14T13:16:11;98868.91;;;30.39;25.12
63607;BME280;51327;52.466;-1.938;2022-08-14T13:18:41;98867.97;;;30.34;25.84
63607;BME280;51327;52.466;-1.938;2022-08-14T13:21:09;98876.81;;;30.36;24.73